Terminal Aerodrome Forecast
Issued by NWS

Home | Current Version | Previous Version | Text Only | Print | Product List | Glossary On
Versions: 1 2 3 4 5 6 7 8 9 10 11 12 13 14 15 16
243
FTUS43 KDLH 262337
TAFHYR
TAF
KHYR 262337Z 2700/2724 05012KT P6SM FEW060
     FM270200 07008KT P6SM SCT060
     FM271400 08012G20KT P6SM SCT250=

USA.gov is the U.S. government's official web portal to all federal, state and local government web resources and services.